sensor_id;sensor_type;location;lat;lon;timestamp;P1;durP1;ratioP1;P2;durP2;ratioP2
37787;SDS011;23627;53.302;-6.362;2022-10-31T00:00:43;6.45;;;0.93;;
37787;SDS011;23627;53.302;-6.362;2022-10-31T00:03:09;7.47;;;1.23;;
37787;SDS011;23627;53.302;-6.362;2022-10-31T00:05:35;7.70;;;0.98;;
37787;SDS011;23627;53.302;-6.362;2022-10-31T00:08:05;5.47;;;1.20;;
37787;SDS011;23627;53.302;-6.362;2022-10-31T00:10:30;5.65;;;1.10;;
37787;SDS011;23627;53.302;-6.362;2022-10-31T00:12:56;5.53;;;1.00;;
37787;SDS011;23627;53.302;-6.362;2022-10-31T00:15:22;4.45;;;0.95;;
37787;SDS011;23627;53.302;-6.362;2022-10-31T00:17:47;6.40;;;1.10;;
37787;SDS011;23627;53.302;-6.362;2022-10-31T00:20:13;5.72;;;1.00;;
37787;SDS011;23627;53.302;-6.362;2022-10-31T00:22:39;7.18;;;1.40;;
37787;SDS011;23627;53.302;-6.362;2022-10-31T00:25:04;7.13;;;0.95;;
37787;SDS011;23627;53.302;-6.362;2022-10-31T00:27:30;7.38;;;1.38;;
37787;SDS011;23627;53.302;-6.362;2022-10-31T00:29:56;8.07;;;1.42;;
37787;SDS011;23627;53.302;-6.362;2022-10-31T00:32:22;7.07;;;0.90;;
37787;SDS011;23627;53.302;-6.362;2022-10-31T00:34:47;5.22;;;1.20;;
37787;SDS011;23627;53.302;-6.362;2022-10-31T00:37:13;8.10;;;1.08;;
37787;SDS011;23627;53.302;-6.362;2022-10-31T00:39:39;5.43;;;1.00;;
37787;SDS011;23627;53.302;-6.362;2022-10-31T00:42:04;7.53;;;1.30;;
37787;SDS011;23627;53.302;-6.362;2022-10-31T00:44:30;5.47;;;1.10;;
37787;SDS011;23627;53.302;-6.362;2022-10-31T00:46:56;7.53;;;1.23;;
37787;SDS011;23627;53.302;-6.362;2022-10-31T00:49:21;4.47;;;1.08;;
37787;SDS011;23627;53.302;-6.362;2022-10-31T00:51:47;7.25;;;1.13;;
37787;SDS011;23627;53.302;-6.362;2022-10-31T00:54:13;8.10;;;1.25;;
37787;SDS011;23627;53.302;-6.362;2022-10-31T00:56:38;7.10;;;1.60;;
37787;SDS011;23627;53.302;-6.362;2022-10-31T00:59:04;9.95;;;1.30;;
37787;SDS011;23627;53.302;-6.362;2022-10-31T01:01:30;10.45;;;1.65;;
37787;SDS011;23627;53.302;-6.362;2022-10-31T01:03:55;10.55;;;2.78;;
37787;SDS011;23627;53.302;-6.362;2022-10-31T01:06:21;6.88;;;1.38;;
37787;SDS011;23627;53.302;-6.362;2022-10-31T01:08:47;10.50;;;1.95;;
37787;SDS011;23627;53.302;-6.362;2022-10-31T01:11:17;12.18;;;2.33;;
37787;SDS011;23627;53.302;-6.362;2022-10-31T01:13:49;12.23;;;2.78;;
37787;SDS011;23627;53.302;-6.362;2022-10-31T01:16:17;9.15;;;2.30;;
37787;SDS011;23627;53.302;-6.362;2022-10-31T01:18:45;9.07;;;1.80;;
37787;SDS011;23627;53.302;-6.362;2022-10-31T01:21:15;6.63;;;1.92;;
37787;SDS011;23627;53.302;-6.362;2022-10-31T01:23:46;9.68;;;1.90;;
37787;SDS011;23627;53.302;-6.362;2022-10-31T01:26:13;8.68;;;1.42;;
37787;SDS011;23627;53.302;-6.362;2022-10-31T01:28:48;8.73;;;1.70;;
37787;SDS011;23627;53.302;-6.362;2022-10-31T01:31:22;11.07;;;1.55;;
37787;SDS011;23627;53.302;-6.362;2022-10-31T01:33:53;9.60;;;1.50;;
37787;SDS011;23627;53.302;-6.362;2022-10-31T01:36:21;5.78;;;1.48;;
37787;SDS011;23627;53.302;-6.362;2022-10-31T01:38:50;7.65;;;1.35;;
37787;SDS011;23627;53.302;-6.362;2022-10-31T01:41:21;8.90;;;1.42;;
37787;SDS011;23627;53.302;-6.362;2022-10-31T01:43:53;7.17;;;1.20;;
37787;SDS011;23627;53.302;-6.362;2022-10-31T01:46:22;9.00;;;0.90;;
37787;SDS011;23627;53.302;-6.362;2022-10-31T01:48:55;8.80;;;1.23;;
37787;SDS011;23627;53.302;-6.362;2022-10-31T01:51:26;6.70;;;0.93;;
37787;SDS011;23627;53.302;-6.362;2022-10-31T01:53:55;5.22;;;1.00;;
37787;SDS011;23627;53.302;-6.362;2022-10-31T01:56:25;9.30;;;1.67;;
37787;SDS011;23627;53.302;-6.362;2022-10-31T01:58:51;9.85;;;1.60;;
37787;SDS011;23627;53.302;-6.362;2022-10-31T02:01:19;6.78;;;1.10;;
37787;SDS011;23627;53.302;-6.362;2022-10-31T02:03:45;9.60;;;1.85;;
37787;SDS011;23627;53.302;-6.362;2022-10-31T02:09:08;8.68;;;1.30;;
37787;SDS011;23627;53.302;-6.362;2022-10-31T02:11:34;7.50;;;1.90;;
37787;SDS011;23627;53.302;-6.362;2022-10-31T02:14:01;9.88;;;1.48;;
37787;SDS011;23627;53.302;-6.362;2022-10-31T02:16:27;7.10;;;1.48;;
37787;SDS011;23627;53.302;-6.362;2022-10-31T02:18:53;8.70;;;1.30;;
37787;SDS011;23627;53.302;-6.362;2022-10-31T02:21:25;7.57;;;1.92;;
37787;SDS011;23627;53.302;-6.362;2022-10-31T02:32:32;6.70;;;1.20;;
37787;SDS011;23627;53.302;-6.362;2022-10-31T02:51:58;6.05;;;1.20;;
37787;SDS011;23627;53.302;-6.362;2022-10-31T02:54:24;6.47;;;0.90;;
37787;SDS011;23627;53.302;-6.362;2022-10-31T02:56:53;8.35;;;1.10;;
37787;SDS011;23627;53.302;-6.362;2022-10-31T02:59:25;6.88;;;1.15;;
37787;SDS011;23627;53.302;-6.362;2022-10-31T03:02:14;8.02;;;1.30;;
37787;SDS011;23627;53.302;-6.362;2022-10-31T03:12:49;8.65;;;1.42;;
37787;SDS011;23627;53.302;-6.362;2022-10-31T03:18:38;6.07;;;1.55;;
37787;SDS011;23627;53.302;-6.362;2022-10-31T03:20:49;6.93;;;1.17;;
37787;SDS011;23627;53.302;-6.362;2022-10-31T03:23:19;3.97;;;0.80;;
37787;SDS011;23627;53.302;-6.362;2022-10-31T03:25:48;5.38;;;0.73;;
37787;SDS011;23627;53.302;-6.362;2022-10-31T03:28:16;9.32;;;0.80;;
37787;SDS011;23627;53.302;-6.362;2022-10-31T03:33:18;7.35;;;0.85;;
37787;SDS011;23627;53.302;-6.362;2022-10-31T03:35:50;9.75;;;1.23;;
37787;SDS011;23627;53.302;-6.362;2022-10-31T03:38:18;4.65;;;0.75;;
37787;SDS011;23627;53.302;-6.362;2022-10-31T03:40:45;8.95;;;1.25;;
37787;SDS011;23627;53.302;-6.362;2022-10-31T03:43:14;9.55;;;1.15;;
37787;SDS011;23627;53.302;-6.362;2022-10-31T03:45:44;7.03;;;1.10;;
37787;SDS011;23627;53.302;-6.362;2022-10-31T03:48:12;9.20;;;1.25;;
37787;SDS011;23627;53.302;-6.362;2022-10-31T03:50:42;5.55;;;0.85;;
37787;SDS011;23627;53.302;-6.362;2022-10-31T03:53:45;6.68;;;1.00;;
37787;SDS011;23627;53.302;-6.362;2022-10-31T03:56:37;5.38;;;1.00;;
37787;SDS011;23627;53.302;-6.362;2022-10-31T03:59:15;7.72;;;1.05;;
37787;SDS011;23627;53.302;-6.362;2022-10-31T04:01:49;7.80;;;1.10;;
37787;SDS011;23627;53.302;-6.362;2022-10-31T04:04:18;10.23;;;0.98;;
37787;SDS011;23627;53.302;-6.362;2022-10-31T04:06:45;6.65;;;1.20;;
37787;SDS011;23627;53.302;-6.362;2022-10-31T04:09:12;6.22;;;0.98;;
37787;SDS011;23627;53.302;-6.362;2022-10-31T04:11:40;5.30;;;1.13;;
37787;SDS011;23627;53.302;-6.362;2022-10-31T04:14:09;8.43;;;1.10;;
37787;SDS011;23627;53.302;-6.362;2022-10-31T04:16:38;6.95;;;1.00;;
37787;SDS011;23627;53.302;-6.362;2022-10-31T04:19:07;6.82;;;1.10;;
37787;SDS011;23627;53.302;-6.362;2022-10-31T04:21:33;10.05;;;1.05;;
37787;SDS011;23627;53.302;-6.362;2022-10-31T04:23:58;6.30;;;1.10;;
37787;SDS011;23627;53.302;-6.362;2022-10-31T04:26:24;6.07;;;0.93;;
37787;SDS011;23627;53.302;-6.362;2022-10-31T04:28:50;5.47;;;1.00;;
37787;SDS011;23627;53.302;-6.362;2022-10-31T04:31:16;7.93;;;1.20;;
37787;SDS011;23627;53.302;-6.362;2022-10-31T04:33:42;4.88;;;0.90;;
37787;SDS011;23627;53.302;-6.362;2022-10-31T04:36:08;7.30;;;1.08;;
37787;SDS011;23627;53.302;-6.362;2022-10-31T04:38:34;7.80;;;0.90;;
37787;SDS011;23627;53.302;-6.362;2022-10-31T04:41:00;8.50;;;1.20;;
37787;SDS011;23627;53.302;-6.362;2022-10-31T04:43:25;6.32;;;0.90;;
37787;SDS011;23627;53.302;-6.362;2022-10-31T04:45:51;7.82;;;1.48;;
37787;SDS011;23627;53.302;-6.362;2022-10-31T04:48:17;6.32;;;1.15;;
37787;SDS011;23627;53.302;-6.362;2022-10-31T04:50:42;7.70;;;0.95;;
37787;SDS011;23627;53.302;-6.362;2022-10-31T04:53:08;6.97;;;1.00;;
37787;SDS011;23627;53.302;-6.362;2022-10-31T04:55:37;5.20;;;0.95;;
37787;SDS011;23627;53.302;-6.362;2022-10-31T04:58:03;7.00;;;1.23;;
37787;SDS011;23627;53.302;-6.362;2022-10-31T05:00:29;7.05;;;1.02;;
37787;SDS011;23627;53.302;-6.362;2022-10-31T05:02:55;5.18;;;0.90;;
37787;SDS011;23627;53.302;-6.362;2022-10-31T05:05:24;4.93;;;1.08;;
37787;SDS011;23627;53.302;-6.362;2022-10-31T05:07:52;9.18;;;1.27;;
37787;SDS011;23627;53.302;-6.362;2022-10-31T05:10:19;6.15;;;0.90;;
37787;SDS011;23627;53.302;-6.362;2022-10-31T05:12:47;5.65;;;1.13;;
37787;SDS011;23627;53.302;-6.362;2022-10-31T05:15:14;5.43;;;0.82;;
37787;SDS011;23627;53.302;-6.362;2022-10-31T05:17:41;8.07;;;1.00;;
37787;SDS011;23627;53.302;-6.362;2022-10-31T05:20:07;9.73;;;1.33;;
37787;SDS011;23627;53.302;-6.362;2022-10-31T05:22:34;7.25;;;1.10;;
37787;SDS011;23627;53.302;-6.362;2022-10-31T05:25:00;8.48;;;1.30;;
37787;SDS011;23627;53.302;-6.362;2022-10-31T05:27:25;6.07;;;1.02;;
37787;SDS011;23627;53.302;-6.362;2022-10-31T05:29:51;8.82;;;1.40;;
37787;SDS011;23627;53.302;-6.362;2022-10-31T05:32:17;6.80;;;1.20;;
37787;SDS011;23627;53.302;-6.362;2022-10-31T05:34:42;5.85;;;1.00;;
37787;SDS011;23627;53.302;-6.362;2022-10-31T05:37:08;7.32;;;2.35;;
37787;SDS011;23627;53.302;-6.362;2022-10-31T05:39:34;7.80;;;1.55;;
37787;SDS011;23627;53.302;-6.362;2022-10-31T05:41:59;7.82;;;1.50;;
37787;SDS011;23627;53.302;-6.362;2022-10-31T05:44:25;6.60;;;1.20;;
37787;SDS011;23627;53.302;-6.362;2022-10-31T05:46:51;7.88;;;1.55;;
37787;SDS011;23627;53.302;-6.362;2022-10-31T05:49:17;8.63;;;1.15;;
37787;SDS011;23627;53.302;-6.362;2022-10-31T05:51:42;7.90;;;1.27;;
37787;SDS011;23627;53.302;-6.362;2022-10-31T05:54:08;6.68;;;1.08;;
37787;SDS011;23627;53.302;-6.362;2022-10-31T05:56:34;6.43;;;1.00;;
37787;SDS011;23627;53.302;-6.362;2022-10-31T05:59:00;4.32;;;0.90;;
37787;SDS011;23627;53.302;-6.362;2022-10-31T06:01:25;5.30;;;0.90;;
37787;SDS011;23627;53.302;-6.362;2022-10-31T06:03:51;7.47;;;1.00;;
37787;SDS011;23627;53.302;-6.362;2022-10-31T06:06:17;8.43;;;1.08;;
37787;SDS011;23627;53.302;-6.362;2022-10-31T06:08:43;8.80;;;1.35;;
37787;SDS011;23627;53.302;-6.362;2022-10-31T06:11:08;5.75;;;1.00;;
37787;SDS011;23627;53.302;-6.362;2022-10-31T06:13:34;7.22;;;1.08;;
37787;SDS011;23627;53.302;-6.362;2022-10-31T06:16:00;7.32;;;1.10;;
37787;SDS011;23627;53.302;-6.362;2022-10-31T06:18:25;6.57;;;1.30;;
37787;SDS011;23627;53.302;-6.362;2022-10-31T06:20:51;6.50;;;1.10;;
37787;SDS011;23627;53.302;-6.362;2022-10-31T06:23:16;4.75;;;0.80;;
37787;SDS011;23627;53.302;-6.362;2022-10-31T06:25:42;5.63;;;0.95;;
37787;SDS011;23627;53.302;-6.362;2022-10-31T06:28:08;6.68;;;0.90;;
37787;SDS011;23627;53.302;-6.362;2022-10-31T06:30:33;6.07;;;0.88;;
37787;SDS011;23627;53.302;-6.362;2022-10-31T06:33:03;6.82;;;1.13;;
37787;SDS011;23627;53.302;-6.362;2022-10-31T06:35:29;4.57;;;0.77;;
37787;SDS011;23627;53.302;-6.362;2022-10-31T06:37:55;4.88;;;0.57;;
37787;SDS011;23627;53.302;-6.362;2022-10-31T06:40:21;7.03;;;0.90;;
37787;SDS011;23627;53.302;-6.362;2022-10-31T06:42:47;5.72;;;0.98;;
37787;SDS011;23627;53.302;-6.362;2022-10-31T06:45:26;5.15;;;0.80;;
37787;SDS011;23627;53.302;-6.362;2022-10-31T06:47:52;8.63;;;0.93;;
37787;SDS011;23627;53.302;-6.362;2022-10-31T06:50:19;6.18;;;1.08;;
37787;SDS011;23627;53.302;-6.362;2022-10-31T06:52:52;6.55;;;0.82;;
37787;SDS011;23627;53.302;-6.362;2022-10-31T06:55:20;7.18;;;1.10;;
37787;SDS011;23627;53.302;-6.362;2022-10-31T06:57:50;5.47;;;0.88;;
37787;SDS011;23627;53.302;-6.362;2022-10-31T07:00:19;5.85;;;0.80;;
37787;SDS011;23627;53.302;-6.362;2022-10-31T07:02:52;5.78;;;0.75;;
37787;SDS011;23627;53.302;-6.362;2022-10-31T07:05:18;5.10;;;0.70;;
37787;SDS011;23627;53.302;-6.362;2022-10-31T07:07:44;4.97;;;1.00;;
37787;SDS011;23627;53.302;-6.362;2022-10-31T07:10:09;8.23;;;1.20;;
37787;SDS011;23627;53.302;-6.362;2022-10-31T07:12:35;8.45;;;1.10;;
37787;SDS011;23627;53.302;-6.362;2022-10-31T07:15:01;4.15;;;1.10;;
37787;SDS011;23627;53.302;-6.362;2022-10-31T07:17:26;6.55;;;0.88;;
37787;SDS011;23627;53.302;-6.362;2022-10-31T07:19:52;3.55;;;0.77;;
37787;SDS011;23627;53.302;-6.362;2022-10-31T07:22:18;4.45;;;0.60;;
37787;SDS011;23627;53.302;-6.362;2022-10-31T07:24:43;3.45;;;0.75;;
37787;SDS011;23627;53.302;-6.362;2022-10-31T07:27:09;4.97;;;0.90;;
37787;SDS011;23627;53.302;-6.362;2022-10-31T07:29:35;2.90;;;0.50;;
37787;SDS011;23627;53.302;-6.362;2022-10-31T07:32:00;5.47;;;1.05;;
37787;SDS011;23627;53.302;-6.362;2022-10-31T07:34:26;4.15;;;0.60;;
37787;SDS011;23627;53.302;-6.362;2022-10-31T07:36:52;6.22;;;1.00;;
37787;SDS011;23627;53.302;-6.362;2022-10-31T07:39:18;4.53;;;0.90;;
37787;SDS011;23627;53.302;-6.362;2022-10-31T07:41:43;5.88;;;0.88;;
37787;SDS011;23627;53.302;-6.362;2022-10-31T07:44:09;6.97;;;1.17;;
37787;SDS011;23627;53.302;-6.362;2022-10-31T07:46:35;4.32;;;0.90;;
37787;SDS011;23627;53.302;-6.362;2022-10-31T07:49:00;8.15;;;1.20;;
37787;SDS011;23627;53.302;-6.362;2022-10-31T07:51:26;7.28;;;1.02;;
37787;SDS011;23627;53.302;-6.362;2022-10-31T07:53:52;5.63;;;1.10;;
37787;SDS011;23627;53.302;-6.362;2022-10-31T07:56:18;7.63;;;1.40;;
37787;SDS011;23627;53.302;-6.362;2022-10-31T07:58:44;6.07;;;0.90;;
37787;SDS011;23627;53.302;-6.362;2022-10-31T08:01:09;8.18;;;1.30;;
37787;SDS011;23627;53.302;-6.362;2022-10-31T08:03:35;7.05;;;1.00;;
37787;SDS011;23627;53.302;-6.362;2022-10-31T08:06:01;9.05;;;1.15;;
37787;SDS011;23627;53.302;-6.362;2022-10-31T08:08:26;5.93;;;0.90;;
37787;SDS011;23627;53.302;-6.362;2022-10-31T08:10:53;7.55;;;1.42;;
37787;SDS011;23627;53.302;-6.362;2022-10-31T08:13:19;6.30;;;0.90;;
37787;SDS011;23627;53.302;-6.362;2022-10-31T08:15:45;6.47;;;1.30;;
37787;SDS011;23627;53.302;-6.362;2022-10-31T08:18:15;7.78;;;1.30;;
37787;SDS011;23627;53.302;-6.362;2022-10-31T08:20:41;5.68;;;1.15;;
37787;SDS011;23627;53.302;-6.362;2022-10-31T08:23:08;9.13;;;1.23;;
37787;SDS011;23627;53.302;-6.362;2022-10-31T08:25:35;10.43;;;1.40;;
37787;SDS011;23627;53.302;-6.362;2022-10-31T08:28:02;8.65;;;1.30;;
37787;SDS011;23627;53.302;-6.362;2022-10-31T08:30:29;5.80;;;1.55;;
37787;SDS011;23627;53.302;-6.362;2022-10-31T08:32:57;7.05;;;1.23;;
37787;SDS011;23627;53.302;-6.362;2022-10-31T08:35:43;8.30;;;1.40;;
37787;SDS011;23627;53.302;-6.362;2022-10-31T08:38:10;7.30;;;1.20;;
37787;SDS011;23627;53.302;-6.362;2022-10-31T08:40:37;10.27;;;1.50;;
37787;SDS011;23627;53.302;-6.362;2022-10-31T08:43:21;6.32;;;1.00;;
37787;SDS011;23627;53.302;-6.362;2022-10-31T08:45:48;7.45;;;1.33;;
37787;SDS011;23627;53.302;-6.362;2022-10-31T08:48:15;6.68;;;1.30;;
37787;SDS011;23627;53.302;-6.362;2022-10-31T08:50:42;6.90;;;1.10;;
37787;SDS011;23627;53.302;-6.362;2022-10-31T08:53:14;9.35;;;1.40;;
37787;SDS011;23627;53.302;-6.362;2022-10-31T08:55:41;8.25;;;1.60;;
37787;SDS011;23627;53.302;-6.362;2022-10-31T08:58:11;8.27;;;1.25;;
37787;SDS011;23627;53.302;-6.362;2022-10-31T09:04:01;10.05;;;1.60;;
37787;SDS011;23627;53.302;-6.362;2022-10-31T09:06:26;5.95;;;1.40;;
37787;SDS011;23627;53.302;-6.362;2022-10-31T09:08:52;8.18;;;1.13;;
37787;SDS011;23627;53.302;-6.362;2022-10-31T09:11:18;8.77;;;1.52;;
37787;SDS011;23627;53.302;-6.362;2022-10-31T09:13:43;9.73;;;1.30;;
37787;SDS011;23627;53.302;-6.362;2022-10-31T09:16:09;7.70;;;1.40;;
37787;SDS011;23627;53.302;-6.362;2022-10-31T09:18:35;6.43;;;1.10;;
37787;SDS011;23627;53.302;-6.362;2022-10-31T09:21:00;8.27;;;1.40;;
37787;SDS011;23627;53.302;-6.362;2022-10-31T09:23:26;8.60;;;1.30;;
37787;SDS011;23627;53.302;-6.362;2022-10-31T09:25:52;6.07;;;1.30;;
37787;SDS011;23627;53.302;-6.362;2022-10-31T09:28:20;8.23;;;1.00;;
37787;SDS011;23627;53.302;-6.362;2022-10-31T09:30:50;6.30;;;0.95;;
37787;SDS011;23627;53.302;-6.362;2022-10-31T09:33:18;8.02;;;1.30;;
37787;SDS011;23627;53.302;-6.362;2022-10-31T09:35:44;4.22;;;1.00;;
37787;SDS011;23627;53.302;-6.362;2022-10-31T09:38:17;6.63;;;0.90;;
37787;SDS011;23627;53.302;-6.362;2022-10-31T09:43:15;4.13;;;0.95;;
37787;SDS011;23627;53.302;-6.362;2022-10-31T09:51:16;5.55;;;1.38;;
37787;SDS011;23627;53.302;-6.362;2022-10-31T09:53:44;4.47;;;0.82;;
37787;SDS011;23627;53.302;-6.362;2022-10-31T09:56:16;6.80;;;1.40;;
37787;SDS011;23627;53.302;-6.362;2022-10-31T09:58:51;8.88;;;1.50;;
37787;SDS011;23627;53.302;-6.362;2022-10-31T10:04:02;5.85;;;1.13;;
37787;SDS011;23627;53.302;-6.362;2022-10-31T10:06:46;10.73;;;1.30;;
37787;SDS011;23627;53.302;-6.362;2022-10-31T10:09:14;7.05;;;1.00;;
37787;SDS011;23627;53.302;-6.362;2022-10-31T10:14:18;5.10;;;0.90;;
37787;SDS011;23627;53.302;-6.362;2022-10-31T10:22:16;6.43;;;1.48;;
37787;SDS011;23627;53.302;-6.362;2022-10-31T10:25:02;9.52;;;1.27;;
37787;SDS011;23627;53.302;-6.362;2022-10-31T10:32:56;5.65;;;0.95;;
37787;SDS011;23627;53.302;-6.362;2022-10-31T10:35:25;6.88;;;1.10;;
37787;SDS011;23627;53.302;-6.362;2022-10-31T10:37:56;9.93;;;1.50;;
37787;SDS011;23627;53.302;-6.362;2022-10-31T10:40:27;8.25;;;1.30;;
37787;SDS011;23627;53.302;-6.362;2022-10-31T10:45:38;6.65;;;1.58;;
37787;SDS011;23627;53.302;-6.362;2022-10-31T10:48:39;6.35;;;1.08;;
37787;SDS011;23627;53.302;-6.362;2022-10-31T10:51:20;6.50;;;1.20;;
37787;SDS011;23627;53.302;-6.362;2022-10-31T10:59:19;8.60;;;1.10;;
37787;SDS011;23627;53.302;-6.362;2022-10-31T11:01:48;8.10;;;1.50;;
37787;SDS011;23627;53.302;-6.362;2022-10-31T11:04:38;9.38;;;1.30;;
37787;SDS011;23627;53.302;-6.362;2022-10-31T11:07:04;6.72;;;1.30;;
37787;SDS011;23627;53.302;-6.362;2022-10-31T11:09:32;4.85;;;1.40;;
37787;SDS011;23627;53.302;-6.362;2022-10-31T11:12:00;6.93;;;1.13;;
37787;SDS011;23627;53.302;-6.362;2022-10-31T11:14:35;6.30;;;1.17;;
37787;SDS011;23627;53.302;-6.362;2022-10-31T11:17:14;7.40;;;0.95;;
37787;SDS011;23627;53.302;-6.362;2022-10-31T11:19:46;5.85;;;1.42;;
37787;SDS011;23627;53.302;-6.362;2022-10-31T11:22:15;6.35;;;1.08;;
37787;SDS011;23627;53.302;-6.362;2022-10-31T11:24:43;6.53;;;1.10;;
37787;SDS011;23627;53.302;-6.362;2022-10-31T11:27:16;6.45;;;1.25;;
37787;SDS011;23627;53.302;-6.362;2022-10-31T11:29:46;7.78;;;0.93;;
37787;SDS011;23627;53.302;-6.362;2022-10-31T11:32:21;6.85;;;1.45;;
37787;SDS011;23627;53.302;-6.362;2022-10-31T11:35:02;6.03;;;1.23;;
37787;SDS011;23627;53.302;-6.362;2022-10-31T11:37:35;7.63;;;1.30;;
37787;SDS011;23627;53.302;-6.362;2022-10-31T11:42:41;6.47;;;1.25;;
37787;SDS011;23627;53.302;-6.362;2022-10-31T11:45:15;6.13;;;0.82;;
37787;SDS011;23627;53.302;-6.362;2022-10-31T11:47:46;5.60;;;1.05;;
37787;SDS011;23627;53.302;-6.362;2022-10-31T11:50:21;4.40;;;1.23;;
37787;SDS011;23627;53.302;-6.362;2022-10-31T11:53:17;11.55;;;6.47;;
37787;SDS011;23627;53.302;-6.362;2022-10-31T11:55:47;10.30;;;5.25;;
37787;SDS011;23627;53.302;-6.362;2022-10-31T11:58:25;7.60;;;1.90;;
37787;SDS011;23627;53.302;-6.362;2022-10-31T12:00:53;4.65;;;1.10;;
37787;SDS011;23627;53.302;-6.362;2022-10-31T12:03:26;9.63;;;1.55;;
37787;SDS011;23627;53.302;-6.362;2022-10-31T12:08:45;8.38;;;1.60;;
37787;SDS011;23627;53.302;-6.362;2022-10-31T12:11:33;7.75;;;1.58;;
37787;SDS011;23627;53.302;-6.362;2022-10-31T12:14:14;5.28;;;1.42;;
37787;SDS011;23627;53.302;-6.362;2022-10-31T12:41:47;6.97;;;1.15;;
37787;SDS011;23627;53.302;-6.362;2022-10-31T13:06:15;7.95;;;1.38;;
37787;SDS011;23627;53.302;-6.362;2022-10-31T13:08:47;5.90;;;1.70;;
37787;SDS011;23627;53.302;-6.362;2022-10-31T13:11:26;8.23;;;1.50;;
37787;SDS011;23627;53.302;-6.362;2022-10-31T13:16:36;9.73;;;2.05;;
37787;SDS011;23627;53.302;-6.362;2022-10-31T13:19:14;8.15;;;1.33;;
37787;SDS011;23627;53.302;-6.362;2022-10-31T13:24:18;5.20;;;1.45;;
37787;SDS011;23627;53.302;-6.362;2022-10-31T13:26:54;7.03;;;1.67;;
37787;SDS011;23627;53.302;-6.362;2022-10-31T13:29:31;7.57;;;2.22;;
37787;SDS011;23627;53.302;-6.362;2022-10-31T13:32:03;6.03;;;1.80;;
37787;SDS011;23627;53.302;-6.362;2022-10-31T13:34:35;10.90;;;2.78;;
37787;SDS011;23627;53.302;-6.362;2022-10-31T13:37:17;11.43;;;3.50;;
37787;SDS011;23627;53.302;-6.362;2022-10-31T13:40:15;9.18;;;3.80;;
37787;SDS011;23627;53.302;-6.362;2022-10-31T13:43:10;6.53;;;2.15;;
37787;SDS011;23627;53.302;-6.362;2022-10-31T13:45:56;6.72;;;1.52;;
37787;SDS011;23627;53.302;-6.362;2022-10-31T13:51:01;8.48;;;1.75;;
37787;SDS011;23627;53.302;-6.362;2022-10-31T13:56:14;6.93;;;1.30;;
37787;SDS011;23627;53.302;-6.362;2022-10-31T13:58:54;8.88;;;2.40;;
37787;SDS011;23627;53.302;-6.362;2022-10-31T14:01:22;9.13;;;1.80;;
37787;SDS011;23627;53.302;-6.362;2022-10-31T14:04:36;8.63;;;1.80;;
37787;SDS011;23627;53.302;-6.362;2022-10-31T14:06:42;7.18;;;1.90;;
37787;SDS011;23627;53.302;-6.362;2022-10-31T14:09:23;9.10;;;2.15;;
37787;SDS011;23627;53.302;-6.362;2022-10-31T14:11:52;8.02;;;2.05;;
37787;SDS011;23627;53.302;-6.362;2022-10-31T14:14:19;7.35;;;2.20;;
37787;SDS011;23627;53.302;-6.362;2022-10-31T14:16:52;7.13;;;1.83;;
37787;SDS011;23627;53.302;-6.362;2022-10-31T14:19:21;8.70;;;2.05;;
37787;SDS011;23627;53.302;-6.362;2022-10-31T14:21:48;8.25;;;1.65;;
37787;SDS011;23627;53.302;-6.362;2022-10-31T14:26:54;8.43;;;1.33;;
37787;SDS011;23627;53.302;-6.362;2022-10-31T14:29:22;6.53;;;1.70;;
37787;SDS011;23627;53.302;-6.362;2022-10-31T14:34:22;7.45;;;1.52;;
37787;SDS011;23627;53.302;-6.362;2022-10-31T14:40:19;10.57;;;1.90;;
37787;SDS011;23627;53.302;-6.362;2022-10-31T14:51:19;8.02;;;1.75;;
37787;SDS011;23627;53.302;-6.362;2022-10-31T14:53:51;6.97;;;1.52;;
37787;SDS011;23627;53.302;-6.362;2022-10-31T14:56:23;5.63;;;1.42;;
37787;SDS011;23627;53.302;-6.362;2022-10-31T14:58:52;6.57;;;1.42;;
37787;SDS011;23627;53.302;-6.362;2022-10-31T15:01:30;8.10;;;1.90;;
37787;SDS011;23627;53.302;-6.362;2022-10-31T15:04:04;4.70;;;1.27;;
37787;SDS011;23627;53.302;-6.362;2022-10-31T15:06:39;7.18;;;1.40;;
37787;SDS011;23627;53.302;-6.362;2022-10-31T15:09:21;8.70;;;2.05;;
37787;SDS011;23627;53.302;-6.362;2022-10-31T15:14:24;4.53;;;1.00;;
37787;SDS011;23627;53.302;-6.362;2022-10-31T15:16:56;5.72;;;1.40;;
37787;SDS011;23627;53.302;-6.362;2022-10-31T15:19:23;4.93;;;1.02;;
37787;SDS011;23627;53.302;-6.362;2022-10-31T15:21:52;7.18;;;1.20;;
37787;SDS011;23627;53.302;-6.362;2022-10-31T15:24:19;4.72;;;1.15;;
37787;SDS011;23627;53.302;-6.362;2022-10-31T15:26:49;4.55;;;1.05;;
37787;SDS011;23627;53.302;-6.362;2022-10-31T15:29:17;5.80;;;1.20;;
37787;SDS011;23627;53.302;-6.362;2022-10-31T15:31:51;6.57;;;1.20;;
37787;SDS011;23627;53.302;-6.362;2022-10-31T15:36:50;4.32;;;1.17;;
37787;SDS011;23627;53.302;-6.362;2022-10-31T15:39:16;3.90;;;1.30;;
37787;SDS011;23627;53.302;-6.362;2022-10-31T15:46:54;5.72;;;1.20;;
37787;SDS011;23627;53.302;-6.362;2022-10-31T15:52:23;5.82;;;1.98;;
37787;SDS011;23627;53.302;-6.362;2022-10-31T15:57:42;6.40;;;1.52;;
37787;SDS011;23627;53.302;-6.362;2022-10-31T16:00:27;5.75;;;1.70;;
37787;SDS011;23627;53.302;-6.362;2022-10-31T16:03:29;5.22;;;1.73;;
37787;SDS011;23627;53.302;-6.362;2022-10-31T16:05:49;5.88;;;1.90;;
37787;SDS011;23627;53.302;-6.362;2022-10-31T16:10:59;6.80;;;1.65;;
37787;SDS011;23627;53.302;-6.362;2022-10-31T16:13:41;7.55;;;1.50;;
37787;SDS011;23627;53.302;-6.362;2022-10-31T16:16:26;5.30;;;1.10;;
37787;SDS011;23627;53.302;-6.362;2022-10-31T16:18:53;4.88;;;1.48;;
37787;SDS011;23627;53.302;-6.362;2022-10-31T16:21:27;6.13;;;1.40;;
37787;SDS011;23627;53.302;-6.362;2022-10-31T16:23:57;6.63;;;1.42;;
37787;SDS011;23627;53.302;-6.362;2022-10-31T16:26:26;5.43;;;1.40;;
37787;SDS011;23627;53.302;-6.362;2022-10-31T16:28:53;6.25;;;1.30;;
37787;SDS011;23627;53.302;-6.362;2022-10-31T16:31:35;4.45;;;1.38;;
37787;SDS011;23627;53.302;-6.362;2022-10-31T16:34:17;3.80;;;1.80;;
37787;SDS011;23627;53.302;-6.362;2022-10-31T16:36:47;6.68;;;2.00;;
37787;SDS011;23627;53.302;-6.362;2022-10-31T16:39:13;5.38;;;1.92;;
37787;SDS011;23627;53.302;-6.362;2022-10-31T16:41:40;7.60;;;2.45;;
37787;SDS011;23627;53.302;-6.362;2022-10-31T16:44:17;6.95;;;1.70;;
37787;SDS011;23627;53.302;-6.362;2022-10-31T16:46:48;7.03;;;1.70;;
37787;SDS011;23627;53.302;-6.362;2022-10-31T16:49:46;6.07;;;1.90;;
37787;SDS011;23627;53.302;-6.362;2022-10-31T16:52:13;7.03;;;1.80;;
37787;SDS011;23627;53.302;-6.362;2022-10-31T16:54:39;6.85;;;1.60;;
37787;SDS011;23627;53.302;-6.362;2022-10-31T16:57:05;6.50;;;1.92;;
37787;SDS011;23627;53.302;-6.362;2022-10-31T16:59:31;5.47;;;1.55;;
37787;SDS011;23627;53.302;-6.362;2022-10-31T17:01:58;5.25;;;1.67;;
37787;SDS011;23627;53.302;-6.362;2022-10-31T17:04:26;2.92;;;1.70;;
37787;SDS011;23627;53.302;-6.362;2022-10-31T17:06:51;4.75;;;1.73;;
37787;SDS011;23627;53.302;-6.362;2022-10-31T17:09:18;5.30;;;2.13;;
37787;SDS011;23627;53.302;-6.362;2022-10-31T17:11:45;8.00;;;3.13;;
37787;SDS011;23627;53.302;-6.362;2022-10-31T17:14:12;5.40;;;2.42;;
37787;SDS011;23627;53.302;-6.362;2022-10-31T17:16:39;5.65;;;3.00;;
37787;SDS011;23627;53.302;-6.362;2022-10-31T17:19:04;4.68;;;2.08;;
37787;SDS011;23627;53.302;-6.362;2022-10-31T17:21:33;4.78;;;1.70;;
37787;SDS011;23627;53.302;-6.362;2022-10-31T17:24:00;6.03;;;2.22;;
37787;SDS011;23627;53.302;-6.362;2022-10-31T17:26:26;8.05;;;2.30;;
37787;SDS011;23627;53.302;-6.362;2022-10-31T17:28:51;8.65;;;2.90;;
37787;SDS011;23627;53.302;-6.362;2022-10-31T17:33:56;7.60;;;3.83;;
37787;SDS011;23627;53.302;-6.362;2022-10-31T17:36:23;7.95;;;4.00;;
37787;SDS011;23627;53.302;-6.362;2022-10-31T17:38:52;7.43;;;2.65;;
37787;SDS011;23627;53.302;-6.362;2022-10-31T17:41:20;6.53;;;2.88;;
37787;SDS011;23627;53.302;-6.362;2022-10-31T17:43:55;7.53;;;2.92;;
37787;SDS011;23627;53.302;-6.362;2022-10-31T17:46:22;6.30;;;2.65;;